Time;durP1;ratioP1;P1;durP2;ratioP2;P2;SDS_P1;SDS_P2;PMS_P1;PMS_P2;Temp;Humidity;BMP_temperature;BMP_pressure;BME280_temperature;BME280_humidity;BME280_pressure;Samples;Min_cycle;Max_cycle;Signal;HPM_P1;HPM_P2
2023/01/26 00:01:43;;;;;;;;;;;;;;;0.69;100;102613.4;;;;-74
2023/01/26 00:06:45;;;;;;;;;;;;;;;0.7;100;102610.7;;;;-75
2023/01/26 00:11:44;;;;;;;;;;;;;;;0.7;100;102601.7;;;;-75
2023/01/26 00:16:44;;;;;;;;;;;;;;;0.7;100;102595.8;;;;-75
2023/01/26 00:18:26;;;;;;;26.9;9;;;;;;;;;;;;;-74
2023/01/26 00:21:44;;;;;;;;;;;;;;;0.71;100;102593.2;;;;-73
2023/01/26 00:26:44;;;;;;;;;;;;;;;0.74;100;102590.5;;;;-74
2023/01/26 00:31:46;;;;;;;;;;;;;;;0.73;100;102582.2;;;;-75
2023/01/26 00:36:44;;;;;;;;;;;;;;;0.75;100;102578.4;;;;-72
2023/01/26 00:46:49;;;;;;;;;;;;;;;0.75;100;102567.8;;;;-74
2023/01/26 00:48:20;;;;;;;24.3;8.6;;;;;;;;;;;;;-73
2023/01/26 00:51:44;;;;;;;;;;;;;;;0.77;100;102565;;;;-75
2023/01/26 00:56:48;;;;;;;;;;;;;;;0.78;100;102566.7;;;;-74
2023/01/26 01:01:51;;;;;;;;;;;;;;;0.78;100;102563.4;;;;-74
2023/01/26 01:06:46;;;;;;;;;;;;;;;0.78;100;102567.2;;;;-74
2023/01/26 01:11:44;;;;;;;;;;;;;;;0.8;100;102562.6;;;;-74
2023/01/26 01:16:44;;;;;;;;;;;;;;;0.81;100;102568.6;;;;-73
2023/01/26 01:18:23;;;;;;;24.7;7.4;;;;;;;;;;;;;-74
2023/01/26 01:22:08;;;;;;;;;;;;;;;0.88;100;102571.9;;;;-74
2023/01/26 01:25:22;;;;;;;;;;;;;;;0.89;100;102572.2;;;;-73
2023/01/26 01:29:33;;;;;;;;;;;;;;;0.82;100;102569.2;;;;-73
2023/01/26 01:34:33;;;;;;;;;;;;;;;0.83;100;102574.3;;;;-74
2023/01/26 01:39:30;;;;;;;;;;;;;;;0.85;100;102582.4;;;;-74
2023/01/26 01:44:33;;;;;;;;;;;;;;;0.85;100;102581.4;;;;-73
2023/01/26 01:48:25;;;;;;;23.7;8.3;;;;;;;;;;;;;-75
2023/01/26 01:49:33;;;;;;;;;;;;;;;0.85;100;102582.1;;;;-73
2023/01/26 01:54:36;;;;;;;;;;;;;;;0.86;100;102585.7;;;;-74
2023/01/26 01:59:33;;;;;;;;;;;;;;;0.88;100;102588.9;;;;-73
2023/01/26 02:04:36;;;;;;;;;;;;;;;0.86;100;102582.6;;;;-72
2023/01/26 02:14:31;;;;;;;;;;;;;;;0.89;100;102584.2;;;;-73
2023/01/26 02:18:22;;;;;;;24.2;8.1;;;;;;;;;;;;;-73
2023/01/26 02:19:38;;;;;;;;;;;;;;;0.89;100;102579.9;;;;-75
2023/01/26 02:24:34;;;;;;;;;;;;;;;0.89;100;102583.1;;;;-73
2023/01/26 02:29:35;;;;;;;;;;;;;;;0.88;100;102581.8;;;;-74
2023/01/26 02:34:30;;;;;;;;;;;;;;;0.9;100;102582.2;;;;-75
2023/01/26 02:39:46;;;;;;;;;;;;;;;0.92;100;102582;;;;-74
2023/01/26 02:44:32;;;;;;;;;;;;;;;0.92;100;102587.2;;;;-74
2023/01/26 02:49:53;;;;;;;;;;;;;;;0.93;100;102595.9;;;;-72
2023/01/26 02:59:41;;;;;;;;;;;;;;;0.93;100;102586.8;;;;-74
2023/01/26 03:04:42;;;;;;;;;;;;;;;0.96;100;102587.4;;;;-74
2023/01/26 03:09:30;;;;;;;;;;;;;;;0.97;100;102590.7;;;;-73
2023/01/26 03:14:30;;;;;;;;;;;;;;;0.99;100;102594.5;;;;-72
2023/01/26 03:29:35;;;;;;;;;;;;;;;1.05;100;102599.9;;;;-74
2023/01/26 03:34:34;;;;;;;;;;;;;;;1.05;100;102596.9;;;;-71
2023/01/26 04:09:35;;;;;;;;;;;;;;;1.19;100;102585.6;;;;-75
2023/01/26 04:24:30;;;;;;;;;;;;;;;1.27;100;102575.9;;;;-74
2023/01/26 04:29:31;;;;;;;;;;;;;;;1.3;100;102579.6;;;;-74
2023/01/26 04:34:36;;;;;;;;;;;;;;;1.34;100;102577.7;;;;-74
2023/01/26 04:39:41;;;;;;;;;;;;;;;1.38;100;102579.8;;;;-73
2023/01/26 04:44:35;;;;;;;;;;;;;;;1.39;100;102578.4;;;;-74
2023/01/26 04:48:17;;;;;;;17.7;6.7;;;;;;;;;;;;;-74
2023/01/26 04:49:33;;;;;;;;;;;;;;;1.4;100;102578;;;;-74
2023/01/26 04:54:32;;;;;;;;;;;;;;;1.43;100;102579.8;;;;-74
2023/01/26 04:59:32;;;;;;;;;;;;;;;1.45;100;102572.7;;;;-74
2023/01/26 05:04:30;;;;;;;;;;;;;;;1.47;100;102572.3;;;;-75
2023/01/26 05:09:36;;;;;;;;;;;;;;;1.51;100;102571.5;;;;-73
2023/01/26 05:14:30;;;;;;;;;;;;;;;1.56;100;102570.5;;;;-73
2023/01/26 05:18:16;;;;;;;17.9;6.6;;;;;;;;;;;;;-74
2023/01/26 05:19:36;;;;;;;;;;;;;;;1.63;100;102569.9;;;;-73
2023/01/26 05:24:43;;;;;;;;;;;;;;;1.68;100;102572.1;;;;-76
2023/01/26 05:29:36;;;;;;;;;;;;;;;1.73;100;102576.8;;;;-74
2023/01/26 05:34:34;;;;;;;;;;;;;;;1.78;100;102581.2;;;;-73
2023/01/26 05:44:30;;;;;;;;;;;;;;;1.88;100;102586.6;;;;-74
2023/01/26 05:48:15;;;;;;;16.3;5;;;;;;;;;;;;;-74
2023/01/26 05:49:37;;;;;;;;;;;;;;;1.9;100;102591.6;;;;-74
2023/01/26 05:54:33;;;;;;;;;;;;;;;1.96;100;102596.7;;;;-74
2023/01/26 05:59:31;;;;;;;;;;;;;;;1.99;100;102598.7;;;;-74
2023/01/26 06:04:30;;;;;;;;;;;;;;;2.03;100;102604.5;;;;-74
2023/01/26 06:09:32;;;;;;;;;;;;;;;2.06;100;102601.2;;;;-73
2023/01/26 06:14:31;;;;;;;;;;;;;;;2.08;100;102604.6;;;;-72
2023/01/26 06:18:22;;;;;;;14.4;2.7;;;;;;;;;;;;;-75
2023/01/26 06:19:42;;;;;;;;;;;;;;;2.08;100;102614.5;;;;-74
2023/01/26 06:24:33;;;;;;;;;;;;;;;2.09;100;102616.7;;;;-74
2023/01/26 06:29:32;;;;;;;;;;;;;;;2.09;100;102625.4;;;;-73
2023/01/26 06:34:30;;;;;;;;;;;;;;;2.08;100;102629.5;;;;-74
2023/01/26 06:39:30;;;;;;;;;;;;;;;2.06;100;102635.2;;;;-74
2023/01/26 06:44:32;;;;;;;;;;;;;;;2.03;100;102637.2;;;;-74
2023/01/26 06:48:21;;;;;;;10.8;2.1;;;;;;;;;;;;;-74
2023/01/26 06:54:38;;;;;;;;;;;;;;;1.96;100;102649;;;;-74
2023/01/26 06:59:33;;;;;;;;;;;;;;;1.92;100;102655.9;;;;-75
2023/01/26 07:04:32;;;;;;;;;;;;;;;1.89;100;102664.2;;;;-73
2023/01/26 07:09:32;;;;;;;;;;;;;;;;;;;;;
2023/01/26 07:14:30;;;;;;;;;;;;;;;;;;;;;
2023/01/26 07:18:18;;;;;;;8.2;1.6;;;;;;;;;;;;;-74
2023/01/26 07:20:18;;;;;;;;;;;;;;;1.89;100;102671.1;;;;-72
2023/01/26 07:24:20;;;;;;;;;;;;;;;1.77;100;102675.6;;;;-74
2023/01/26 07:29:19;;;;;;;;;;;;;;;1.72;100;102689.5;;;;-73
2023/01/26 07:34:19;;;;;;;;;;;;;;;1.63;100;102689.6;;;;-73
2023/01/26 07:39:19;;;;;;;;;;;;;;;1.59;100;102696.4;;;;-72
2023/01/26 07:44:22;;;;;;;;;;;;;;;1.53;100;102698.8;;;;-73
2023/01/26 07:48:14;;;;;;;7.6;1.2;;;;;;;;;;;;;-73
2023/01/26 07:49:19;;;;;;;;;;;;;;;1.48;100;102712.2;;;;-73
2023/01/26 07:54:20;;;;;;;;;;;;;;;1.42;100;102712;;;;-76
2023/01/26 07:59:19;;;;;;;;;;;;;;;1.36;100;102713.1;;;;-75
2023/01/26 08:04:26;;;;;;;;;;;;;;;1.3;100;102722.5;;;;-75
2023/01/26 08:09:19;;;;;;;;;;;;;;;1.23;100;102722.9;;;;-75
2023/01/26 08:14:19;;;;;;;;;;;;;;;1.23;100;102723.4;;;;-75
2023/01/26 08:18:15;;;;;;;8.5;1.2;;;;;;;;;;;;;-76
2023/01/26 08:19:19;;;;;;;;;;;;;;;1.24;100;102722.4;;;;-75
2023/01/26 08:24:19;;;;;;;;;;;;;;;1.26;100;102729;;;;-74
2023/01/26 08:29:21;;;;;;;;;;;;;;;1.27;100;102730.7;;;;-74
2023/01/26 08:34:21;;;;;;;;;;;;;;;1.32;100;102734.9;;;;-75
2023/01/26 08:39:19;;;;;;;;;;;;;;;1.4;100;102744.4;;;;-75
2023/01/26 08:44:19;;;;;;;;;;;;;;;1.5;100;102745.8;;;;-75
2023/01/26 08:48:25;;;;;;;5.2;1.2;;;;;;;;;;;;;-75
2023/01/26 08:49:33;;;;;;;;;;;;;;;1.62;100;102743.3;;;;-74
2023/01/26 08:54:29;;;;;;;;;;;;;;;1.72;100;102757.2;;;;-75
2023/01/26 08:59:27;;;;;;;;;;;;;;;1.76;100;102759.3;;;;-75
2023/01/26 09:04:18;;;;;;;;;;;;;;;1.82;100;102764.2;;;;-75
2023/01/26 09:09:20;;;;;;;;;;;;;;;1.92;100;102764.1;;;;-75
2023/01/26 09:14:22;;;;;;;;;;;;;;;2.08;100;102768.9;;;;-75
2023/01/26 09:18:16;;;;;;;6.5;1.2;;;;;;;;;;;;;-73
2023/01/26 09:19:25;;;;;;;;;;;;;;;2.21;100;102765.2;;;;-76
2023/01/26 09:24:26;;;;;;;;;;;;;;;2.31;100;102765.2;;;;-74
2023/01/26 09:29:19;;;;;;;;;;;;;;;2.42;100;102763;;;;-76
2023/01/26 09:34:19;;;;;;;;;;;;;;;2.55;100;102763;;;;-75
2023/01/26 09:39:19;;;;;;;;;;;;;;;2.65;100;102768.2;;;;-74
2023/01/26 09:44:21;;;;;;;;;;;;;;;2.75;100;102768.2;;;;-75
2023/01/26 09:48:16;;;;;;;9;1.4;;;;;;;;;;;;;-74
2023/01/26 09:49:25;;;;;;;;;;;;;;;2.94;100;102767.1;;;;-74
2023/01/26 09:54:27;;;;;;;;;;;;;;;3.09;100;102762.9;;;;-73
2023/01/26 09:59:27;;;;;;;;;;;;;;;3.22;100;102765.8;;;;-74
2023/01/26 10:04:38;;;;;;;;;;;;;;;3.33;100;102759.8;;;;-74
2023/01/26 10:09:24;;;;;;;;;;;;;;;3.47;100;102760.4;;;;-74
2023/01/26 10:14:23;;;;;;;;;;;;;;;3.61;100;102759.3;;;;-74
2023/01/26 10:18:15;;;;;;;7.8;1.4;;;;;;;;;;;;;-74
2023/01/26 10:19:25;;;;;;;;;;;;;;;3.76;100;102761.1;;;;-74
2023/01/26 10:24:21;;;;;;;;;;;;;;;3.91;100;102767.2;;;;-74
2023/01/26 10:29:23;;;;;;;;;;;;;;;4.1;100;102772;;;;-74
2023/01/26 10:34:28;;;;;;;;;;;;;;;4.22;100;102775;;;;-74
2023/01/26 10:39:22;;;;;;;;;;;;;;;4.42;100;102782.9;;;;-73
2023/01/26 10:44:32;;;;;;;;;;;;;;;4.55;100;102785;;;;-74
2023/01/26 10:48:17;;;;;;;10.6;2;;;;;;;;;;;;;-74
2023/01/26 10:49:20;;;;;;;;;;;;;;;4.67;100;102779.6;;;;-74
2023/01/26 10:54:23;;;;;;;;;;;;;;;4.79;100;102781;;;;-73
2023/01/26 10:59:24;;;;;;;;;;;;;;;4.91;100;102776;;;;-73
2023/01/26 11:04:40;;;;;;;;;;;;;;;5.01;100;102776.2;;;;-74
2023/01/26 11:09:23;;;;;;;;;;;;;;;5.12;100;102778.4;;;;-74
2023/01/26 11:14:24;;;;;;;;;;;;;;;5.19;100;102776.8;;;;-74
2023/01/26 11:18:21;;;;;;;5.6;1.3;;;;;;;;;;;;;-74
2023/01/26 11:19:25;;;;;;;;;;;;;;;5.26;100;102772.1;;;;-74
2023/01/26 11:24:26;;;;;;;;;;;;;;;5.28;99.90625;102776.7;;;;-75
2023/01/26 11:29:36;;;;;;;;;;;;;;;5.29;99.84473;102773.8;;;;-74
2023/01/26 11:34:26;;;;;;;;;;;;;;;5.35;100;102777;;;;-74
2023/01/26 11:39:52;;;;;;;;;;;;;;;5.51;100;102769;;;;-74
2023/01/26 11:48:27;;;;;;;8.6;1.3;;;;;;;;;;;;;-75
2023/01/26 11:49:39;;;;;;;;;;;;;;;5.74;100;102764.5;;;;-75
2023/01/26 11:54:26;;;;;;;;;;;;;;;5.85;99.64453;102764.4;;;;-75
2023/01/26 11:59:20;;;;;;;;;;;;;;;5.99;99.97168;102760.9;;;;-74
2023/01/26 12:04:21;;;;;;;;;;;;;;;6.03;100;102749.2;;;;-74
2023/01/26 12:09:23;;;;;;;;;;;;;;;6.12;100;102745.3;;;;-75
2023/01/26 12:14:30;;;;;;;;;;;;;;;6.06;100;102738.7;;;;-75
2023/01/26 12:18:15;;;;;;;8.2;1.5;;;;;;;;;;;;;-74
2023/01/26 12:19:26;;;;;;;;;;;;;;;6.11;99.98633;102726.6;;;;-74
2023/01/26 12:24:23;;;;;;;;;;;;;;;6.21;100;102720.3;;;;-74
2023/01/26 12:29:22;;;;;;;;;;;;;;;6.29;100;102714.4;;;;-74
2023/01/26 12:34:19;;;;;;;;;;;;;;;6.33;99.7002;102713.2;;;;-74
2023/01/26 12:39:31;;;;;;;;;;;;;;;6.45;99.81445;102715.1;;;;-74
2023/01/26 12:44:27;;;;;;;;;;;;;;;6.53;99.83203;102716.9;;;;-75
2023/01/26 12:48:27;;;;;;;6.9;1;;;;;;;;;;;;;-74
2023/01/26 12:49:37;;;;;;;;;;;;;;;6.53;99.58105;102700.6;;;;-74
2023/01/26 12:54:23;;;;;;;;;;;;;;;6.52;99.64648;102703.6;;;;-74
2023/01/26 12:59:21;;;;;;;;;;;;;;;6.56;99.42773;102698.6;;;;-74
2023/01/26 13:04:22;;;;;;;;;;;;;;;6.56;100;102691;;;;-75
2023/01/26 13:09:26;;;;;;;;;;;;;;;6.6;100;102693.7;;;;-74
2023/01/26 13:14:45;;;;;;;;;;;;;;;6.69;99.6748;102696.4;;;;-75
2023/01/26 13:18:19;;;;;;;7.6;1.1;;;;;;;;;;;;;-74
2023/01/26 13:19:33;;;;;;;;;;;;;;;6.78;99.32324;102703.6;;;;-75
2023/01/26 13:24:30;;;;;;;;;;;;;;;6.76;98.26367;102698.2;;;;-75
2023/01/26 13:29:35;;;;;;;;;;;;;;;6.81;100;102694.5;;;;-74
2023/01/26 13:34:24;;;;;;;;;;;;;;;6.71;99.17773;102692.4;;;;-74
2023/01/26 13:39:26;;;;;;;;;;;;;;;6.69;99.22852;102697.8;;;;-74
2023/01/26 13:44:32;;;;;;;;;;;;;;;6.72;99.49609;102703.4;;;;-76
2023/01/26 13:48:26;;;;;;;5.5;0.9;;;;;;;;;;;;;-73
2023/01/26 13:49:39;;;;;;;;;;;;;;;6.71;98.98145;102694.2;;;;-77
2023/01/26 13:54:20;;;;;;;;;;;;;;;6.78;100;102689.8;;;;-75
2023/01/26 13:59:31;;;;;;;;;;;;;;;6.81;99.2207;102682.8;;;;-74
2023/01/26 14:04:27;;;;;;;;;;;;;;;6.87;100;102687.2;;;;-76
2023/01/26 14:09:25;;;;;;;;;;;;;;;6.86;98.75488;102686.1;;;;-75
2023/01/26 14:11:19;;;;;;;;;;;;;;;6.99;98.25781;102680.2;;;;-75
2023/01/26 14:16:36;;;;;;;;;;;;;;;6.97;98.31934;102681;;;;-73
2023/01/26 14:18:28;;;;;;;4.6;0.9;;;;;;;;;;;;;-75
2023/01/26 14:19:08;;;;;;;;;;;;;;;6.88;98.41895;102685.1;;;;-75
2023/01/26 14:24:11;;;;;;;;;;;;;;;6.95;100;102680.4;;;;-75
2023/01/26 14:28:59;;;;;;;;;;;;;;;6.87;98.89844;102684.4;;;;-74
2023/01/26 14:34:00;;;;;;;;;;;;;;;6.88;98.8877;102691;;;;-74
2023/01/26 14:38:59;;;;;;;;;;;;;;;6.94;100;102696.4;;;;-75
2023/01/26 14:48:20;;;;;;;6.8;1;;;;;;;;;;;;;-75
2023/01/26 14:49:05;;;;;;;;;;;;;;;6.77;100;102703.7;;;;-75
2023/01/26 14:53:59;;;;;;;;;;;;;;;6.71;99.78809;102704.2;;;;-75
2023/01/26 14:58:58;;;;;;;;;;;;;;;6.67;100;102706.3;;;;-76
2023/01/26 15:04:00;;;;;;;;;;;;;;;6.61;100;102713.7;;;;-75
2023/01/26 15:09:05;;;;;;;;;;;;;;;6.59;100;102711.9;;;;-74
2023/01/26 15:14:05;;;;;;;;;;;;;;;6.52;100;102714.7;;;;-74
2023/01/26 15:18:28;;;;;;;6.5;0.8;;;;;;;;;;;;;-75
2023/01/26 15:19:11;;;;;;;;;;;;;;;6.45;100;102716.2;;;;-75
2023/01/26 15:24:00;;;;;;;;;;;;;;;6.44;100;102717;;;;-75
2023/01/26 15:28:58;;;;;;;;;;;;;;;6.36;100;102721.7;;;;-75
2023/01/26 15:34:01;;;;;;;;;;;;;;;6.3;100;102722.9;;;;-74
2023/01/26 15:38:59;;;;;;;;;;;;;;;6.26;100;102724.9;;;;-75
2023/01/26 15:43:58;;;;;;;;;;;;;;;6.24;100;102724;;;;-74
2023/01/26 15:48:19;;;;;;;6.8;1.1;;;;;;;;;;;;;-74
2023/01/26 15:48:57;;;;;;;;;;;;;;;6.2;100;102729.8;;;;-73
2023/01/26 15:53:57;;;;;;;;;;;;;;;6.16;100;102731.4;;;;-74
2023/01/26 15:58:57;;;;;;;;;;;;;;;6.14;100;102729.8;;;;-74
2023/01/26 16:04:01;;;;;;;;;;;;;;;6.04;100;102735.4;;;;-76
2023/01/26 16:08:58;;;;;;;;;;;;;;;6;100;102737;;;;-76
2023/01/26 16:13:57;;;;;;;;;;;;;;;5.95;100;102742;;;;-76
2023/01/26 16:18:16;;;;;;;6.2;1;;;;;;;;;;;;;-76
2023/01/26 16:18:57;;;;;;;;;;;;;;;5.9;100;102744.9;;;;-76
2023/01/26 16:23:57;;;;;;;;;;;;;;;5.88;100;102751.8;;;;-76
2023/01/26 16:28:57;;;;;;;;;;;;;;;5.85;100;102752.7;;;;-75
2023/01/26 16:33:57;;;;;;;;;;;;;;;5.84;100;102751;;;;-74
2023/01/26 16:38:57;;;;;;;;;;;;;;;5.79;100;102751.9;;;;-78
2023/01/26 16:43:58;;;;;;;;;;;;;;;5.69;100;102738.6;;;;-75
2023/01/26 16:48:23;;;;;;;8.7;1.1;;;;;;;;;;;;;-74
2023/01/26 16:49:10;;;;;;;;;;;;;;;5.69;100;102740.3;;;;-75
2023/01/26 17:07:23;;;;;;;;;;;;;;;5.48;100;102732.7;;;;-75
2023/01/26 17:12:11;;;;;;;;;;;;;;;5.44;100;102736;;;;-74
2023/01/26 17:17:15;;;;;;;;;;;;;;;5.42;100;102735.8;;;;-73
2023/01/26 17:18:17;;;;;;;6.3;1;;;;;;;;;;;;;-73
2023/01/26 17:22:09;;;;;;;;;;;;;;;5.37;100;102738.8;;;;-75
2023/01/26 17:27:09;;;;;;;;;;;;;;;5.33;100;102728.2;;;;-74
2023/01/26 17:32:08;;;;;;;;;;;;;;;5.31;100;102730.3;;;;-75
2023/01/26 17:37:27;;;;;;;;;;;;;;;;;;;;;
2023/01/26 17:42:25;;;;;;;;;;;;;;;5.24;100;102733.7;;;;-74
2023/01/26 17:47:09;;;;;;;;;;;;;;;5.22;100;102738.7;;;;-74
2023/01/26 17:48:20;;;;;;;5.4;0.9;;;;;;;;;;;;;-74
2023/01/26 17:52:13;;;;;;;;;;;;;;;5.2;100;102734.9;;;;-74
2023/01/26 17:57:08;;;;;;;;;;;;;;;5.16;100;102745.1;;;;-75
2023/01/26 18:02:25;;;;;;;;;;;;;;;5.13;100;102748.2;;;;-75
2023/01/26 18:07:15;;;;;;;;;;;;;;;5.14;100;102747.5;;;;-74
2023/01/26 18:12:20;;;;;;;;;;;;;;;5.1;100;102749.4;;;;-75
2023/01/26 18:18:24;;;;;;;5.2;1.1;;;;;;;;;;;;;-74
2023/01/26 18:25:16;;;;;;;;;;;;;;;5.12;100;102746.9;;;;-75
2023/01/26 18:29:07;;;;;;;;;;;;;;;5.01;100;102743.7;;;;-75
2023/01/26 18:34:07;;;;;;;;;;;;;;;4.99;100;102741.8;;;;-75
2023/01/26 18:42:31;;;;;;;;;;;;;;;;;;;;;
2023/01/26 18:45:56;;;;;;;;;;;;;;;4.95;100;102745.9;;;;-75
2023/01/26 18:48:24;;;;;;;8.6;1.1;;;;;;;;;;;;;-74
2023/01/26 18:50:37;;;;;;;;;;;;;;;4.92;100;102754;;;;-74
2023/01/26 18:55:33;;;;;;;;;;;;;;;4.89;100;102753.1;;;;-75
2023/01/26 19:00:35;;;;;;;;;;;;;;;4.86;100;102756;;;;-75
2023/01/26 19:05:59;;;;;;;;;;;;;;;4.83;100;102755.7;;;;-75
2023/01/26 19:15:43;;;;;;;;;;;;;;;4.76;100;102755.4;;;;-74
2023/01/26 19:24:01;;;;;;;;;;;;;;;4.69;100;102763.2;;;;-75
2023/01/26 19:28:42;;;;;;;;;;;;;;;4.64;100;102766.1;;;;-74
2023/01/26 19:33:32;;;;;;;;;;;;;;;4.56;100;102766;;;;-75
2023/01/26 19:38:44;;;;;;;;;;;;;;;4.5;100;102767.2;;;;-75
2023/01/26 19:43:37;;;;;;;;;;;;;;;4.47;100;102769.3;;;;-75
2023/01/26 19:48:25;;;;;;;7.4;1.2;;;;;;;;;;;;;-75
2023/01/26 19:49:16;;;;;;;;;;;;;;;4.39;100;102768.1;;;;-76
2023/01/26 19:53:32;;;;;;;;;;;;;;;4.34;100;102769.3;;;;-75
2023/01/26 19:58:38;;;;;;;;;;;;;;;4.29;100;102768.5;;;;-76
2023/01/26 20:03:45;;;;;;;;;;;;;;;4.21;100;102763.1;;;;-74
2023/01/26 20:09:59;;;;;;;;;;;;;;;4.24;100;102769.6;;;;-75
2023/01/26 20:26:36;;;;;;;;;;;;;;;3.95;100;102761.1;;;;-74
2023/01/26 20:30:04;;;;;;;;;;;;;;;3.86;100;102760.2;;;;-75
2023/01/26 20:40:41;;;;;;;;;;;;;;;3.68;100;102757.9;;;;-76
2023/01/26 20:48:45;;;;;;;6.2;1.1;;;;;;;;;;;;;-76
2023/01/26 20:50:28;;;;;;;;;;;;;;;3.63;100;102762.2;;;;-76
2023/01/26 20:58:39;;;;;;;;;;;;;;;3.46;100;102762.9;;;;-76
2023/01/26 21:10:09;;;;;;;;;;;;;;;3.54;100;102753.3;;;;-74
2023/01/26 21:15:36;;;;;;;;;;;;;;;3.47;100;102764.5;;;;-76
2023/01/26 21:19:49;;;;;;;;;;;;;;;3.31;100;102755.5;;;;-74
2023/01/26 21:23:18;;;;;;;;;;;;;;;;;;;;;
2023/01/26 21:27:42;;;;;;;;;;;;;;;3.35;100;102767.6;;;;-76
2023/01/26 21:37:48;;;;;;;;;;;;;;;3.29;100;102756.5;;;;-77
2023/01/26 21:48:44;;;;;;;8.7;1.2;;;;;;;;;;;;;-75
2023/01/26 22:03:04;;;;;;;;;;;;;;;3.37;100;102754.9;;;;-75
2023/01/26 22:07:55;;;;;;;;;;;;;;;3.41;100;102761;;;;-75
2023/01/26 22:12:59;;;;;;;;;;;;;;;3.45;100;102763.7;;;;-75
2023/01/26 22:18:04;;;;;;;;;;;;;;;3.46;100;102758.4;;;;-74
2023/01/26 22:18:31;;;;;;;7;1.2;;;;;;;;;;;;;-74
2023/01/26 22:22:56;;;;;;;;;;;;;;;3.49;100;102751.9;;;;-74
2023/01/26 22:28:14;;;;;;;;;;;;;;;3.51;100;102751.8;;;;-76
2023/01/26 22:29:03;;;;;;;;;;;;;;;3.62;100;102756.2;;;;-75
2023/01/26 22:32:28;;;;;;;;;;;;;;;3.56;100;102754.3;;;;-75
2023/01/26 22:37:24;;;;;;;;;;;;;;;3.58;100;102755.9;;;;-73
2023/01/26 22:47:27;;;;;;;;;;;;;;;3.62;100;102764.3;;;;-75
2023/01/26 22:48:39;;;;;;;8.4;1.1;;;;;;;;;;;;;-74
2023/01/26 22:53:01;;;;;;;;;;;;;;;;;;;;;
2023/01/26 22:57:31;;;;;;;;;;;;;;;3.68;100;102770.7;;;;-74
2023/01/26 23:02:45;;;;;;;;;;;;;;;3.69;100;102761;;;;-75
2023/01/26 23:07:27;;;;;;;;;;;;;;;3.73;100;102770.4;;;;-76
2023/01/26 23:12:24;;;;;;;;;;;;;;;3.75;100;102769.7;;;;-75
2023/01/26 23:17:24;;;;;;;;;;;;;;;3.81;100;102772.8;;;;-74
2023/01/26 23:18:19;;;;;;;8.5;1.3;;;;;;;;;;;;;-74
2023/01/26 23:22:41;;;;;;;;;;;;;;;3.82;100;102764.8;;;;-74
2023/01/26 23:27:24;;;;;;;;;;;;;;;3.91;100;102763.8;;;;-74
2023/01/26 23:32:32;;;;;;;;;;;;;;;3.95;100;102761.6;;;;-75
2023/01/26 23:37:26;;;;;;;;;;;;;;;3.94;100;102759.7;;;;-76
2023/01/26 23:42:34;;;;;;;;;;;;;;;3.98;100;102761.7;;;;-75
2023/01/26 23:47:27;;;;;;;;;;;;;;;4;100;102754.8;;;;-75
2023/01/26 23:48:24;;;;;;;8.1;0.9;;;;;;;;;;;;;-75
2023/01/26 23:52:29;;;;;;;;;;;;;;;4.01;100;102752.3;;;;-74
2023/01/26 23:57:42;;;;;;;;;;;;;;;4.07;100;102747;;;;-76
